Time;durP1;ratioP1;P1;durP2;ratioP2;P2;SDS_P1;SDS_P2;PMS_P1;PMS_P2;Temp;Humidity;BMP_temperature;BMP_pressure;BME280_temperature;BME280_humidity;BME280_pressure;Samples;Min_cycle;Max_cycle;Signal;HPM_P1;HPM_P2
2022/05/31 00:00:29;;;;;;;9.07;5.73;;;;;;;21.11;37.83;101483.97;5031933;28;20037;-72
2022/05/31 00:02:56;;;;;;;8.70;5.67;;;;;;;21.13;37.83;101478.59;5033804;28;20037;-72
2022/05/31 00:05:22;;;;;;;8.10;5.37;;;;;;;21.02;38.18;101487.06;5032058;28;20034;-73
2022/05/31 00:07:47;;;;;;;8.47;5.53;;;;;;;20.86;38.58;101488.66;5033466;28;20026;-73
2022/05/31 00:10:14;;;;;;;11.00;5.87;;;;;;;21.12;38.32;101485.72;5033188;28;20446;-72
2022/05/31 00:12:40;;;;;;;9.87;5.73;;;;;;;21.34;37.36;101480.31;5034186;28;20033;-73
2022/05/31 00:15:08;;;;;;;14.30;5.40;;;;;;;21.29;37.70;101481.44;5029781;28;20028;-73
2022/05/31 00:17:34;;;;;;;7.07;5.00;;;;;;;21.38;37.41;101478.38;5030201;28;20083;-72
2022/05/31 00:19:59;;;;;;;9.70;5.93;;;;;;;21.22;37.85;101474.69;5031476;28;20021;-72
2022/05/31 00:22:26;;;;;;;9.47;6.03;;;;;;;21.34;37.59;101469.66;5032777;28;20107;-72
2022/05/31 00:24:52;;;;;;;8.37;5.03;;;;;;;20.97;38.58;101476.63;5032092;28;20047;-72
2022/05/31 00:27:21;;;;;;;9.93;5.70;;;;;;;21.15;38.05;101474.94;5033722;28;20486;-72
2022/05/31 00:29:47;;;;;;;7.87;5.60;;;;;;;20.92;38.06;101475.94;5026709;28;20049;-72
2022/05/31 00:32:15;;;;;;;10.60;5.83;;;;;;;21.21;37.78;101478.28;5030385;28;20374;-73
2022/05/31 00:34:44;;;;;;;8.97;5.77;;;;;;;21.24;38.09;101476.34;5032150;28;20112;-73
2022/05/31 00:37:10;;;;;;;9.27;5.60;;;;;;;20.98;38.15;101477.50;5032608;28;20068;-73
2022/05/31 00:39:37;;;;;;;6.00;4.93;;;;;;;21.16;37.73;101471.38;5032984;28;20119;-72
2022/05/31 00:42:06;;;;;;;8.70;5.57;;;;;;;21.14;38.13;101483.88;5033665;28;20029;-72
2022/05/31 00:44:33;;;;;;;7.57;5.33;;;;;;;20.87;38.69;101482.41;5029662;28;20035;-73
2022/05/31 00:47:01;;;;;;;10.30;6.67;;;;;;;21.07;38.46;101482.41;5032618;28;20041;-72
2022/05/31 00:49:43;;;;;;;8.27;5.70;;;;;;;20.93;38.88;101468.88;5032138;28;20036;-73
2022/05/31 00:52:18;;;;;;;15.48;7.20;;;;;;;20.83;38.93;101484.34;5030352;28;20025;-72
2022/05/31 00:54:57;;;;;;;11.27;5.77;;;;;;;20.67;39.47;101484.09;5023283;28;20113;-73
2022/05/31 00:57:23;;;;;;;8.97;5.93;;;;;;;20.76;39.24;101482.84;5031659;28;20113;-73
2022/05/31 01:00:01;;;;;;;12.20;7.13;;;;;;;20.62;39.15;101478.97;5029881;28;20082;-72
2022/05/31 01:02:27;;;;;;;12.13;7.00;;;;;;;20.67;39.33;101473.47;5031540;28;20025;-73
2022/05/31 01:04:57;;;;;;;11.70;5.37;;;;;;;20.60;39.62;101479.97;5033168;28;20029;-71
2022/05/31 01:07:22;;;;;;;10.13;6.17;;;;;;;20.67;39.38;101469.00;5030092;28;20044;-72
2022/05/31 01:09:49;;;;;;;10.00;5.70;;;;;;;20.55;39.54;101471.31;5032178;28;20485;-71
2022/05/31 01:12:15;;;;;;;10.47;6.17;;;;;;;20.55;39.82;101464.22;5031823;28;20072;-72
2022/05/31 01:14:41;;;;;;;8.33;6.20;;;;;;;20.68;39.30;101476.06;5027122;28;20032;-71
2022/05/31 01:17:12;;;;;;;9.23;6.70;;;;;;;20.93;38.72;101458.22;5030083;28;20025;-71
2022/05/31 01:19:56;;;;;;;8.40;5.90;;;;;;;20.45;39.66;101469.03;5045043;28;20454;-71
2022/05/31 01:22:42;;;;;;;11.83;5.93;;;;;;;20.59;39.53;101473.78;5037761;28;20022;-72
2022/05/31 01:25:16;;;;;;;6.50;5.70;;;;;;;20.56;39.41;101465.09;5013482;28;20069;-71
2022/05/31 01:27:58;;;;;;;11.33;6.57;;;;;;;20.59;39.40;101464.94;5027480;28;20057;-72
2022/05/31 01:30:24;;;;;;;15.40;5.90;;;;;;;20.43;39.81;101470.91;5030018;28;20061;-71
2022/05/31 01:33:07;;;;;;;10.63;6.60;;;;;;;20.65;39.35;101465.56;5030907;28;20021;-71
2022/05/31 01:35:34;;;;;;;12.80;6.45;;;;;;;20.42;39.77;101466.53;5013501;28;20033;-72
2022/05/31 01:38:02;;;;;;;11.97;6.33;;;;;;;20.03;40.51;101472.53;5024920;28;20551;-72
2022/05/31 01:40:46;;;;;;;10.77;6.10;;;;;;;19.27;42.31;101466.53;5028480;28;20052;-72
2022/05/31 01:43:12;;;;;;;7.80;6.30;;;;;;;19.49;41.78;101470.13;5012724;28;20052;-72
2022/05/31 01:45:53;;;;;;;10.97;6.20;;;;;;;19.56;41.90;101473.38;5044676;28;20541;-72
2022/05/31 01:48:19;;;;;;;8.30;5.87;;;;;;;19.56;41.82;101468.09;5011840;28;20018;-72
2022/05/31 01:50:45;;;;;;;9.70;6.43;;;;;;;19.67;41.98;101470.34;5032097;28;20036;-71
2022/05/31 01:53:13;;;;;;;9.07;6.07;;;;;;;19.91;41.14;101459.75;5031489;28;20037;-71
2022/05/31 01:55:41;;;;;;;9.47;6.53;;;;;;;19.73;41.28;101463.91;5028454;28;20029;-72
2022/05/31 01:58:09;;;;;;;8.90;6.60;;;;;;;19.91;41.17;101462.41;5029391;28;20124;-71
2022/05/31 02:00:35;;;;;;;8.07;5.53;;;;;;;19.76;41.29;101459.38;5030850;28;20029;-71
2022/05/31 02:03:05;;;;;;;9.63;6.00;;;;;;;20.03;40.85;101459.28;5030396;28;20091;-72
2022/05/31 02:05:30;;;;;;;12.03;6.03;;;;;;;19.93;40.69;101456.09;5031317;28;20033;-72
2022/05/31 02:08:01;;;;;;;16.53;6.83;;;;;;;19.62;41.30;101451.09;5030580;28;20524;-71
2022/05/31 02:10:28;;;;;;;6.57;5.43;;;;;;;19.58;41.31;101455.66;5030815;28;20059;-71
2022/05/31 02:12:53;;;;;;;8.37;5.57;;;;;;;19.67;41.33;101444.69;5032036;28;20048;-72
2022/05/31 02:15:20;;;;;;;7.80;6.27;;;;;;;19.71;40.84;101455.19;5030680;28;20071;-72
2022/05/31 02:17:46;;;;;;;11.47;6.23;;;;;;;19.48;41.69;101444.53;5029104;28;20029;-71
2022/05/31 02:20:12;;;;;;;8.07;6.07;;;;;;;19.64;41.66;101460.69;5024747;28;20036;-71
2022/05/31 02:22:38;;;;;;;10.90;6.27;;;;;;;19.56;41.66;101446.88;5063419;28;20127;-71
2022/05/31 02:25:04;;;;;;;10.80;6.67;;;;;;;19.65;41.39;101451.81;5031496;28;20041;-72
2022/05/31 02:27:29;;;;;;;9.57;5.60;;;;;;;19.65;41.16;101451.81;5030054;28;20402;-73
2022/05/31 02:29:55;;;;;;;8.07;6.20;;;;;;;19.55;41.65;101445.16;5025563;28;20664;-71
2022/05/31 02:32:21;;;;;;;10.67;6.37;;;;;;;19.59;41.58;101449.44;5032591;28;20037;-72
2022/05/31 02:34:49;;;;;;;8.13;6.20;;;;;;;19.87;41.06;101452.84;5030419;28;20026;-72
2022/05/31 02:37:16;;;;;;;9.30;6.90;;;;;;;19.76;41.65;101456.72;5029828;28;20025;-72
2022/05/31 02:39:41;;;;;;;8.40;6.33;;;;;;;19.96;41.18;101450.69;5030221;28;20033;-72
2022/05/31 02:42:07;;;;;;;7.13;6.07;;;;;;;19.96;40.76;101447.16;5029369;28;20064;-72
2022/05/31 02:44:33;;;;;;;10.30;6.17;;;;;;;20.00;40.79;101452.28;5028316;28;20053;-72
2022/05/31 02:46:59;;;;;;;9.47;6.37;;;;;;;19.90;40.69;101444.75;5031759;28;20032;-72
2022/05/31 02:49:25;;;;;;;8.90;5.67;;;;;;;19.90;41.41;101448.25;5031466;28;20049;-72
2022/05/31 02:51:50;;;;;;;6.90;5.67;;;;;;;19.96;40.65;101444.50;5029379;28;20115;-71
2022/05/31 02:54:18;;;;;;;8.90;6.10;;;;;;;19.59;41.70;101440.59;5030933;28;20512;-72
2022/05/31 02:56:46;;;;;;;13.37;5.93;;;;;;;19.79;41.25;101438.03;5030870;28;20025;-71
2022/05/31 02:59:12;;;;;;;8.63;5.53;;;;;;;19.61;41.92;101439.63;5029376;28;20040;-71
2022/05/31 03:01:40;;;;;;;9.47;6.57;;;;;;;19.72;41.17;101441.84;5030341;28;20022;-72
2022/05/31 03:04:07;;;;;;;9.17;6.10;;;;;;;19.90;40.63;101444.75;5031608;28;20057;-71
2022/05/31 03:06:34;;;;;;;10.50;6.23;;;;;;;19.80;41.17;101439.81;5028769;28;20045;-72
2022/05/31 03:09:00;;;;;;;9.63;5.67;;;;;;;19.72;41.33;101436.56;5031527;28;20663;-72
2022/05/31 03:11:44;;;;;;;9.40;6.37;;;;;;;19.42;41.60;101428.84;5029641;28;20057;-72
2022/05/31 03:14:19;;;;;;;7.77;5.60;;;;;;;19.57;41.17;101439.81;5027655;28;20033;-71
2022/05/31 03:16:47;;;;;;;9.50;6.27;;;;;;;19.57;41.60;101437.16;5011764;28;20104;-71
2022/05/31 03:19:22;;;;;;;9.63;6.00;;;;;;;19.42;41.77;101434.13;5028203;28;20049;-71
2022/05/31 03:21:54;;;;;;;11.73;6.00;;;;;;;19.54;41.73;101431.97;5034324;28;20688;-71
2022/05/31 03:24:24;;;;;;;9.60;6.27;;;;;;;19.61;41.58;101433.47;5034336;28;20033;-74
2022/05/31 03:26:52;;;;;;;7.90;6.20;;;;;;;19.55;41.97;101436.31;5032929;28;20033;-71
2022/05/31 03:29:17;;;;;;;12.60;6.40;;;;;;;19.65;41.82;101427.97;5033680;28;20049;-71
2022/05/31 03:31:43;;;;;;;8.93;6.10;;;;;;;19.74;41.52;101437.38;5032383;28;20090;-71
2022/05/31 03:34:08;;;;;;;12.07;6.10;;;;;;;19.94;41.17;101433.94;5033525;28;20069;-71
2022/05/31 03:36:34;;;;;;;9.23;5.67;;;;;;;19.93;41.11;101434.00;5034599;28;20128;-71
2022/05/31 03:39:00;;;;;;;8.50;5.73;;;;;;;19.92;41.05;101426.97;5033519;28;20029;-72
2022/05/31 03:41:25;;;;;;;9.03;5.83;;;;;;;19.60;41.59;101427.28;5030357;28;20049;-72
2022/05/31 03:43:51;;;;;;;8.73;5.87;;;;;;;19.83;41.42;101425.56;5031717;28;20057;-72
2022/05/31 03:46:17;;;;;;;6.77;5.53;;;;;;;19.84;41.51;101424.63;5032229;28;20029;-71
2022/05/31 03:48:42;;;;;;;10.53;6.27;;;;;;;19.66;41.36;101426.19;5031416;28;20133;-72
2022/05/31 03:51:10;;;;;;;8.60;5.63;;;;;;;20.13;40.46;101426.13;5034566;28;20418;-71
2022/05/31 03:53:36;;;;;;;7.23;5.70;;;;;;;20.04;40.74;101425.63;5033172;28;20409;-72
2022/05/31 03:56:04;;;;;;;9.90;6.17;;;;;;;19.92;41.22;101419.00;5030947;28;20037;-72
2022/05/31 03:58:31;;;;;;;7.77;5.63;;;;;;;19.78;41.53;101419.53;5020818;28;20093;-72
2022/05/31 04:00:57;;;;;;;7.73;5.30;;;;;;;19.82;41.07;101431.78;5030243;28;20084;-71
2022/05/31 04:03:22;;;;;;;8.57;5.80;;;;;;;20.04;40.86;101426.47;5032015;28;20401;-72
2022/05/31 04:05:49;;;;;;;8.37;5.47;;;;;;;20.01;40.88;101421.31;5032626;28;20087;-72
2022/05/31 04:08:15;;;;;;;8.67;5.80;;;;;;;19.66;41.92;101420.91;5032180;28;20081;-73
2022/05/31 04:10:42;;;;;;;7.77;5.80;;;;;;;20.19;41.09;101419.69;5062389;28;20037;-71
2022/05/31 04:13:08;;;;;;;7.03;5.50;;;;;;;20.10;40.74;101420.94;5032838;28;20057;-71
2022/05/31 04:15:34;;;;;;;7.43;5.57;;;;;;;19.95;41.46;101413.59;5032735;28;20071;-71
2022/05/31 04:18:00;;;;;;;8.40;5.90;;;;;;;20.25;40.65;101411.50;5030696;28;20029;-72
2022/05/31 04:20:26;;;;;;;8.27;5.80;;;;;;;20.09;41.00;101416.56;5033492;28;20389;-71
2022/05/31 04:23:57;;;;;;;9.00;5.60;;;;;;;20.46;40.22;101417.69;5033307;28;20087;-72
2022/05/31 04:25:37;;;;;;;8.93;5.67;;;;;;;20.40;40.73;101417.06;5033220;28;20030;-72
2022/05/31 04:28:02;;;;;;;8.53;5.80;;;;;;;20.71;39.80;101406.03;5031524;28;20028;-71
2022/05/31 04:30:28;;;;;;;7.87;5.93;;;;;;;19.94;41.60;101425.13;5029204;28;20045;-72
2022/05/31 04:32:53;;;;;;;8.17;6.17;;;;;;;20.42;40.68;101423.19;5031983;28;20497;-72
2022/05/31 04:35:19;;;;;;;6.43;5.73;;;;;;;20.35;40.35;101419.94;5033360;28;20032;-72
2022/05/31 04:37:44;;;;;;;6.67;5.40;;;;;;;20.33;40.78;101416.47;5032593;28;20108;-72
2022/05/31 04:40:10;;;;;;;8.03;5.40;;;;;;;20.21;40.75;101420.50;5032898;28;20075;-71
2022/05/31 04:42:37;;;;;;;7.20;5.47;;;;;;;20.41;40.52;101419.66;5026126;28;20061;-71
2022/05/31 04:45:03;;;;;;;7.50;5.77;;;;;;;20.38;39.93;101409.16;5030894;28;20039;-72
2022/05/31 04:47:29;;;;;;;6.83;5.23;;;;;;;20.54;40.21;101408.50;5033322;28;20021;-71
2022/05/31 04:49:54;;;;;;;7.23;5.87;;;;;;;20.88;39.28;101409.75;5047924;28;20390;-71
2022/05/31 04:52:19;;;;;;;8.87;6.50;;;;;;;20.92;39.30;101408.69;5031584;28;20021;-72
2022/05/31 04:54:45;;;;;;;10.97;6.40;;;;;;;20.86;39.42;101408.97;5032149;28;20029;-72
2022/05/31 04:57:10;;;;;;;6.47;5.13;;;;;;;20.50;40.07;101408.66;5029584;28;20033;-71
2022/05/31 04:59:36;;;;;;;10.20;5.60;;;;;;;20.59;39.95;101409.19;5031032;28;20037;-72
2022/05/31 05:02:01;;;;;;;9.20;6.53;;;;;;;20.70;40.12;101408.75;5033325;28;20447;-72
2022/05/31 05:04:26;;;;;;;8.50;5.53;;;;;;;20.81;39.81;101410.03;5028153;28;20037;-71
2022/05/31 05:06:52;;;;;;;12.73;5.50;;;;;;;20.71;40.49;101400.72;5033162;28;20029;-71
2022/05/31 05:09:17;;;;;;;8.70;6.10;;;;;;;20.98;39.43;101397.78;5033155;28;20029;-72
2022/05/31 05:11:45;;;;;;;7.13;4.88;;;;;;;21.03;39.60;101406.41;5031320;28;20133;-71
2022/05/31 05:14:10;;;;;;;7.70;5.63;;;;;;;21.40;39.19;101407.38;5031254;28;20033;-72
2022/05/31 05:16:36;;;;;;;6.60;4.97;;;;;;;21.47;38.12;101390.22;5032880;28;20022;-71
2022/05/31 05:19:01;;;;;;;10.17;5.67;;;;;;;21.21;39.15;101393.22;5030279;28;20501;-72
2022/05/31 05:21:26;;;;;;;6.50;4.70;;;;;;;21.33;38.94;101397.97;5031828;28;20021;-72
2022/05/31 05:23:52;;;;;;;8.77;5.20;;;;;;;21.65;38.63;101388.50;5031828;28;20377;-72
2022/05/31 05:26:17;;;;;;;5.90;4.35;;;;;;;21.46;38.48;101398.25;5030216;28;20476;-72
2022/05/31 05:31:30;;;;;;;11.02;6.18;;;;;;;21.70;38.62;101388.28;5018001;28;20040;-71
2022/05/31 05:33:57;;;;;;;6.78;5.53;;;;;;;22.03;38.26;101382.25;5031570;28;20095;-72
2022/05/31 05:36:24;;;;;;;7.55;5.05;;;;;;;22.32;37.29;101385.25;5031235;28;20025;-72
2022/05/31 05:38:50;;;;;;;7.13;5.03;;;;;;;21.94;37.99;101383.56;5031019;28;20021;-71
2022/05/31 05:41:16;;;;;;;6.72;5.18;;;;;;;22.24;38.00;101379.44;5028055;28;20025;-71
2022/05/31 05:43:41;;;;;;;6.10;4.97;;;;;;;22.51;37.54;101378.06;5030912;28;20036;-72
2022/05/31 05:46:21;;;;;;;8.30;5.07;;;;;;;22.19;37.83;101372.56;5031921;28;20021;-71
2022/05/31 05:48:46;;;;;;;6.53;4.88;;;;;;;22.42;37.77;101373.22;5031520;28;20028;-71
2022/05/31 05:51:18;;;;;;;9.52;5.45;;;;;;;22.04;38.45;101381.31;5030840;28;20363;-71
2022/05/31 05:53:44;;;;;;;7.60;5.32;;;;;;;22.35;38.47;101377.13;5030230;28;20037;-72
2022/05/31 05:56:10;;;;;;;9.57;5.38;;;;;;;22.75;37.52;101380.41;5062176;28;20038;-71
2022/05/31 05:58:35;;;;;;;8.95;5.35;;;;;;;22.36;38.13;101384.19;5030388;28;20041;-71
2022/05/31 06:01:01;;;;;;;9.25;5.78;;;;;;;23.04;36.79;101378.84;5031499;28;20036;-71
2022/05/31 06:03:29;;;;;;;5.70;4.72;;;;;;;23.38;36.33;101381.50;5030231;28;20025;-71
2022/05/31 06:05:55;;;;;;;8.48;5.85;;;;;;;22.66;36.75;101375.56;5031963;28;20022;-71
2022/05/31 06:08:35;;;;;;;7.10;5.40;;;;;;;22.90;36.78;101383.19;5030938;28;20028;-72
2022/05/31 06:11:10;;;;;;;7.85;5.80;;;;;;;23.55;35.82;101378.75;5028242;28;20029;-71
2022/05/31 06:13:42;;;;;;;7.60;5.03;;;;;;;23.90;35.79;101376.88;5032163;28;20101;-72
2022/05/31 06:16:09;;;;;;;7.53;5.10;;;;;;;24.00;35.45;101378.03;5029698;28;20108;-71
2022/05/31 06:18:48;;;;;;;8.65;5.40;;;;;;;23.93;34.73;101384.69;5030423;28;20021;-72
2022/05/31 06:21:15;;;;;;;7.43;4.40;;;;;;;24.25;34.79;101376.59;5030923;28;20030;-71
2022/05/31 06:23:42;;;;;;;8.30;4.50;;;;;;;24.56;34.80;101365.81;5029024;28;20029;-72
2022/05/31 06:26:08;;;;;;;6.82;4.88;;;;;;;24.99;33.02;101359.66;5028548;28;20030;-72
2022/05/31 06:28:33;;;;;;;10.25;5.20;;;;;;;25.98;32.25;101368.50;5025797;28;20049;-71
2022/05/31 06:30:58;;;;;;;8.82;5.10;;;;;;;25.89;32.37;101367.31;5038563;28;20024;-71
2022/05/31 06:33:24;;;;;;;8.02;4.82;;;;;;;25.53;31.83;101366.13;5032437;28;20112;-72
2022/05/31 06:35:49;;;;;;;7.32;5.38;;;;;;;25.73;31.54;101372.81;5027790;28;20127;-72
2022/05/31 06:38:17;;;;;;;6.57;4.72;;;;;;;25.52;32.11;101373.25;5031351;28;20108;-72
2022/05/31 06:40:43;;;;;;;6.22;4.55;;;;;;;25.58;32.78;101374.69;5027818;28;20029;-71
2022/05/31 06:43:08;;;;;;;7.88;4.72;;;;;;;25.29;32.81;101371.19;5022479;28;20041;-72
2022/05/31 06:45:34;;;;;;;9.35;4.47;;;;;;;25.85;31.85;101372.00;5030781;28;20369;-72
2022/05/31 06:47:59;;;;;;;5.90;4.40;;;;;;;25.41;32.11;101370.44;5031264;28;20048;-71
2022/05/31 06:50:25;;;;;;;7.20;5.13;;;;;;;25.27;32.55;101383.81;5025248;28;20052;-71
2022/05/31 06:58:18;;;;;;;6.03;4.15;;;;;;;26.85;30.49;101379.63;5031516;28;20102;-72
2022/05/31 07:00:43;;;;;;;8.00;4.93;;;;;;;26.40;31.35;101385.38;5035478;28;20029;-71
2022/05/31 07:03:09;;;;;;;10.43;4.80;;;;;;;26.87;30.30;101373.22;5033945;28;20021;-71
2022/05/31 07:05:34;;;;;;;6.70;4.35;;;;;;;27.51;29.34;101377.59;5033004;28;20029;-72
2022/05/31 07:08:00;;;;;;;6.90;4.65;;;;;;;28.52;28.50;101379.03;5031718;28;20037;-71
2022/05/31 07:10:25;;;;;;;5.63;3.80;;;;;;;28.64;27.93;101373.69;5043558;28;20547;-72
2022/05/31 07:12:51;;;;;;;5.60;4.30;;;;;;;28.69;27.42;101374.19;5043394;28;20025;-72
2022/05/31 07:15:16;;;;;;;5.22;4.07;;;;;;;29.94;27.16;101378.47;5034034;28;20366;-71
2022/05/31 07:17:44;;;;;;;4.95;4.05;;;;;;;29.63;26.51;101374.72;5031115;28;20772;-72
2022/05/31 07:20:10;;;;;;;6.22;4.82;;;;;;;31.03;25.37;101375.47;5031498;28;20045;-72
2022/05/31 07:22:37;;;;;;;6.30;4.00;;;;;;;31.15;25.57;101376.25;5032404;28;20033;-72
2022/05/31 07:25:03;;;;;;;5.13;3.58;;;;;;;31.48;23.08;101376.91;5031117;28;20112;-72
2022/05/31 07:27:28;;;;;;;3.30;2.83;;;;;;;32.14;22.41;101372.69;5032210;28;20029;-71
2022/05/31 07:29:54;;;;;;;9.30;3.58;;;;;;;32.89;21.98;101364.72;5032869;28;20401;-71
2022/05/31 07:32:20;;;;;;;6.25;3.00;;;;;;;34.47;18.96;101374.31;5030815;28;20033;-71
2022/05/31 07:34:45;;;;;;;7.47;3.50;;;;;;;34.02;19.24;101369.00;5022489;28;20473;-71
2022/05/31 07:37:12;;;;;;;4.68;3.20;;;;;;;35.03;18.04;101365.78;5049853;28;20044;-71
2022/05/31 07:39:39;;;;;;;6.95;3.40;;;;;;;33.75;19.09;101373.50;5033175;28;20077;-72
2022/05/31 07:42:04;;;;;;;3.50;2.88;;;;;;;33.03;19.82;101373.34;5032432;28;20150;-71
2022/05/31 07:44:30;;;;;;;7.72;2.97;;;;;;;32.75;20.64;101370.59;5033739;28;20060;-72
2022/05/31 07:46:56;;;;;;;8.82;3.30;;;;;;;34.55;18.86;101369.94;5033870;28;20546;-70
2022/05/31 07:49:22;;;;;;;5.53;3.22;;;;;;;32.70;20.29;101368.38;5033433;28;20056;-72
2022/05/31 07:51:47;;;;;;;4.80;2.72;;;;;;;33.85;19.68;101376.16;5032113;28;20064;-72
2022/05/31 07:54:13;;;;;;;5.93;2.75;;;;;;;34.17;20.47;101364.75;5063901;28;20029;-71
2022/05/31 07:56:39;;;;;;;5.85;2.70;;;;;;;35.00;19.35;101364.25;5037147;28;20115;-71
2022/05/31 07:59:04;;;;;;;8.68;3.30;;;;;;;33.67;19.97;101365.28;5035482;28;20041;-71
2022/05/31 08:01:30;;;;;;;5.53;3.38;;;;;;;35.10;19.36;101363.28;5032911;28;20108;-71
2022/05/31 08:03:55;;;;;;;7.00;3.55;;;;;;;34.28;19.72;101369.03;5035972;28;20096;-71
2022/05/31 08:06:24;;;;;;;5.25;3.25;;;;;;;34.11;19.00;101365.34;5035240;28;20559;-71
2022/05/31 08:08:49;;;;;;;6.90;3.38;;;;;;;34.72;18.53;101368.16;5034770;28;20067;-71
2022/05/31 08:11:24;;;;;;;6.82;3.40;;;;;;;34.65;19.04;101367.94;5036744;28;20060;-72
2022/05/31 08:13:50;;;;;;;3.40;2.90;;;;;;;35.05;18.53;101368.34;5031600;28;20021;-71
2022/05/31 08:16:18;;;;;;;5.45;3.22;;;;;;;35.42;18.08;101364.41;5031451;28;20300;-71
2022/05/31 08:18:44;;;;;;;7.07;3.50;;;;;;;35.48;18.80;101363.75;5034049;28;20480;-72
2022/05/31 08:21:16;;;;;;;6.20;2.80;;;;;;;34.67;18.05;101366.78;5032769;28;20029;-72
2022/05/31 08:23:41;;;;;;;5.93;3.00;;;;;;;34.65;17.73;101363.38;5031574;28;20036;-71
2022/05/31 08:26:08;;;;;;;3.72;2.85;;;;;;;33.49;18.33;101360.69;5031738;28;20292;-70
2022/05/31 08:28:34;;;;;;;5.60;2.78;;;;;;;34.46;17.47;101361.75;5035983;28;20445;-71
2022/05/31 08:31:03;;;;;;;5.88;3.30;;;;;;;34.72;18.20;101365.44;5012755;28;20409;-71
2022/05/31 08:33:29;;;;;;;6.30;3.20;;;;;;;35.63;17.48;101361.22;5026510;28;20057;-72
2022/05/31 08:35:55;;;;;;;5.85;3.22;;;;;;;36.61;17.77;101367.66;5024288;28;20142;-71
2022/05/31 08:38:21;;;;;;;7.15;3.15;;;;;;;37.06;14.65;101358.00;5032190;28;20189;-71
2022/05/31 08:40:58;;;;;;;5.32;3.00;;;;;;;37.50;14.74;101348.41;5033018;28;20354;-71
2022/05/31 08:43:35;;;;;;;8.95;5.47;;;;;;;37.17;15.65;101354.03;5030884;28;20473;-72
2022/05/31 08:46:08;;;;;;;6.53;3.08;;;;;;;38.21;15.44;101355.50;5033419;28;20021;-72
2022/05/31 08:48:42;;;;;;;8.20;3.70;;;;;;;38.96;13.93;101357.25;5031728;28;20485;-71
2022/05/31 08:57:10;;;;;;;4.28;2.70;;;;;;;38.90;13.29;101349.81;5032023;28;20349;-72
2022/05/31 09:00:07;;;;;;;3.65;2.60;;;;;;;39.61;12.74;101345.59;5030145;28;20029;-71
2022/05/31 09:02:40;;;;;;;6.43;3.25;;;;;;;37.98;13.58;101349.06;5022153;28;20041;-71
2022/05/31 09:05:14;;;;;;;9.63;3.20;;;;;;;37.63;13.24;101348.66;5033945;28;20444;-71
2022/05/31 09:07:50;;;;;;;5.03;2.85;;;;;;;36.47;14.96;101352.91;5020567;28;20104;-71
2022/05/31 09:10:32;;;;;;;6.65;3.50;;;;;;;37.41;15.40;101344.88;5028522;28;20050;-71
2022/05/31 09:13:32;;;;;;;5.20;3.20;;;;;;;37.53;14.66;101341.75;5026296;28;20469;-71
2022/05/31 09:16:19;;;;;;;6.43;3.10;;;;;;;38.12;13.97;101341.09;5028812;28;20619;-71
2022/05/31 09:18:52;;;;;;;5.50;3.45;;;;;;;40.30;11.93;101344.94;5025566;28;20063;-72
2022/05/31 09:21:26;;;;;;;4.28;3.47;;;;;;;38.42;13.25;101335.72;5026232;28;20514;-71
2022/05/31 09:23:53;;;;;;;6.18;3.60;;;;;;;39.66;12.53;101343.13;5029925;28;20022;-71
2022/05/31 09:26:51;;;;;;;6.35;3.60;;;;;;;36.94;15.72;101334.91;5027632;28;20029;-71
2022/05/31 09:29:40;;;;;;;4.32;3.45;;;;;;;38.72;13.78;101336.56;5039926;28;20057;-71
2022/05/31 09:32:18;;;;;;;6.05;4.18;;;;;;;38.96;14.12;101340.84;5005466;28;20034;-72
2022/05/31 09:34:55;;;;;;;7.20;3.25;;;;;;;37.68;14.18;101335.28;5030806;28;20025;-71
2022/05/31 09:37:33;;;;;;;8.35;4.00;;;;;;;36.12;14.71;101339.50;5054165;28;20120;-71
2022/05/31 09:40:16;;;;;;;8.18;4.30;;;;;;;35.87;17.25;101330.50;5029619;28;20060;-71
2022/05/31 09:43:03;;;;;;;6.00;3.83;;;;;;;33.67;16.63;101330.06;5030775;28;20164;-72
2022/05/31 09:45:33;;;;;;;7.18;4.20;;;;;;;36.36;15.90;101328.78;5056517;28;20033;-72
2022/05/31 09:48:02;;;;;;;5.43;3.33;;;;;;;36.20;15.14;101329.63;5031495;28;20029;-72
2022/05/31 09:50:29;;;;;;;5.00;3.15;;;;;;;33.59;16.69;101328.97;5028857;28;20021;-72
2022/05/31 09:52:57;;;;;;;6.78;3.42;;;;;;;36.13;14.88;101321.31;5030766;28;20051;-71
2022/05/31 09:58:27;;;;;;;4.93;2.90;;;;;;;34.79;14.75;101320.38;5036209;28;20056;-71
2022/05/31 10:01:26;;;;;;;3.95;2.35;;;;;;;35.30;13.90;101318.50;5030457;28;20030;-71
2022/05/31 10:03:55;;;;;;;3.78;2.55;;;;;;;35.62;15.34;101316.88;5030867;28;20033;-71
2022/05/31 10:06:27;;;;;;;2.83;1.25;;;;;;;34.61;15.46;101307.72;5022072;28;20116;-71
2022/05/31 10:08:53;;;;;;;;;;;;;;;36.33;14.23;101314.50;5031749;28;20025;-71
2022/05/31 10:11:32;;;;;;;3.33;1.85;;;;;;;37.61;12.62;101308.97;5045204;28;20047;-71
2022/05/31 10:14:25;;;;;;;4.53;2.72;;;;;;;36.30;13.54;101314.81;5029904;28;20073;-71
2022/05/31 10:16:52;;;;;;;4.07;2.90;;;;;;;32.48;16.17;101308.16;5029379;28;20041;-71
2022/05/31 10:19:26;;;;;;;5.03;2.83;;;;;;;34.57;16.42;101309.06;5031999;28;20026;-71
2022/05/31 10:21:52;;;;;;;9.52;3.17;;;;;;;35.86;14.67;101315.22;5036735;28;20024;-71
2022/05/31 10:24:35;;;;;;;6.68;3.00;;;;;;;34.45;15.87;101310.34;5035499;28;20036;-71
2022/05/31 10:27:18;;;;;;;4.85;3.50;;;;;;;34.19;15.19;101313.91;5023194;28;20033;-71
2022/05/31 10:29:59;;;;;;;5.70;3.40;;;;;;;34.74;16.63;101306.44;5030388;28;20046;-72
2022/05/31 10:32:25;;;;;;;5.05;3.13;;;;;;;33.55;16.13;101311.34;5030341;28;20495;-71
2022/05/31 10:35:11;;;;;;;6.90;2.90;;;;;;;34.61;16.59;101302.31;5032930;28;20121;-72
2022/05/31 10:37:46;;;;;;;6.95;3.42;;;;;;;35.18;15.03;101303.53;5042026;28;20037;-71
2022/05/31 10:40:22;;;;;;;4.85;2.92;;;;;;;35.52;15.35;101305.34;5027797;28;20033;-71
2022/05/31 10:42:51;;;;;;;6.05;3.42;;;;;;;36.81;14.62;101294.63;5032117;28;20100;-71
2022/05/31 10:45:26;;;;;;;7.78;3.40;;;;;;;35.53;14.59;101295.28;5025765;28;20691;-71
2022/05/31 10:47:56;;;;;;;5.72;2.80;;;;;;;35.46;16.70;101306.00;5026178;28;20039;-72
2022/05/31 10:50:33;;;;;;;6.60;2.55;;;;;;;37.31;14.15;101301.50;5042744;28;20401;-72
2022/05/31 10:53:25;;;;;;;6.00;3.53;;;;;;;35.30;14.60;101296.78;5037098;28;20024;-71
2022/05/31 10:55:59;;;;;;;3.50;2.85;;;;;;;33.70;16.08;101297.22;5028112;28;20441;-71
2022/05/31 10:58:39;;;;;;;5.75;3.22;;;;;;;33.80;15.85;101298.03;5034815;28;20056;-71
2022/05/31 11:01:21;;;;;;;5.43;3.03;;;;;;;33.01;17.00;101302.25;5029072;28;20029;-72
2022/05/31 11:03:59;;;;;;;7.18;3.20;;;;;;;32.90;17.02;101295.19;5032020;28;20108;-72
2022/05/31 11:07:02;;;;;;;6.38;2.80;;;;;;;33.23;17.15;101301.81;5027238;28;20142;-71
2022/05/31 11:12:33;;;;;;;6.00;2.80;;;;;;;30.93;20.23;101304.41;5028249;28;20123;-71
2022/05/31 11:15:08;;;;;;;7.28;3.63;;;;;;;29.63;19.88;101306.56;5031001;28;20022;-71
2022/05/31 11:17:46;;;;;;;8.10;2.95;;;;;;;29.88;22.90;101314.34;5031249;28;20075;-71
2022/05/31 11:20:24;;;;;;;6.18;3.28;;;;;;;29.64;23.98;101316.38;5031261;28;20021;-71
2022/05/31 11:22:53;;;;;;;6.68;3.58;;;;;;;27.14;24.30;101323.91;5031850;28;20041;-71
2022/05/31 11:25:42;;;;;;;5.40;3.42;;;;;;;28.40;23.38;101313.63;5033905;28;20032;-71
2022/05/31 11:28:08;;;;;;;7.45;3.42;;;;;;;29.06;22.51;101317.47;5032473;28;20127;-71
2022/05/31 11:31:19;;;;;;;5.50;3.40;;;;;;;28.77;21.95;101307.22;5031360;28;20179;-71
2022/05/31 11:34:06;;;;;;;7.22;3.65;;;;;;;29.65;22.48;101307.28;5006340;28;20116;-71
2022/05/31 11:36:43;;;;;;;8.50;3.63;;;;;;;30.53;20.66;101313.31;5022023;28;20032;-71
2022/05/31 11:39:37;;;;;;;7.45;3.22;;;;;;;31.29;21.25;101311.03;5056089;28;20072;-70
2022/05/31 11:42:29;;;;;;;9.30;4.00;;;;;;;31.49;17.88;101312.91;5041994;28;20037;-71
2022/05/31 11:45:24;;;;;;;8.63;3.40;;;;;;;30.61;19.32;101308.97;5023982;28;20041;-71
2022/05/31 11:48:11;;;;;;;7.72;3.53;;;;;;;30.83;19.97;101307.09;5028435;28;20033;-70
2022/05/31 11:50:53;;;;;;;6.25;3.00;;;;;;;30.59;18.80;101308.25;5029180;28;20046;-70
2022/05/31 11:53:54;;;;;;;5.35;3.05;;;;;;;30.66;20.78;101307.72;5020961;28;20107;-71
2022/05/31 11:56:32;;;;;;;6.45;2.92;;;;;;;30.50;20.93;101303.69;5021930;28;20079;-71
2022/05/31 11:59:04;;;;;;;4.53;2.83;;;;;;;30.21;20.98;101304.34;5018155;28;20037;-71